createdAt,value
2018-09-11T00:55:45.589Z,43.66
2018-09-11T00:58:15.914Z,43.62
2018-09-11T01:00:46.232Z,43.57
2018-09-11T01:05:59.497Z,43.58
2018-09-11T01:08:29.808Z,43.37
2018-09-11T01:12:18.929Z,43.05
2018-09-11T01:14:49.624Z,42.95
2018-09-11T01:17:19.937Z,42.28
2018-09-11T01:19:50.237Z,42.33
2018-09-11T01:22:20.493Z,42.06
2018-09-11T01:24:50.776Z,42.26
2018-09-11T01:27:21.158Z,41.96
2018-09-11T01:29:51.597Z,41.83
2018-09-11T01:32:21.913Z,42.33
2018-09-11T01:34:52.239Z,41.63
2018-09-11T01:37:22.498Z,41.73
2018-09-11T01:39:52.849Z,42.21
2018-09-11T01:42:23.185Z,41.51
2018-09-11T01:44:53.542Z,41.45
2018-09-11T01:47:23.849Z,41.41
2018-09-11T01:49:54.205Z,41.53
2018-09-11T01:52:24.561Z,41.92
2018-09-11T01:54:54.922Z,41.77
2018-09-11T01:57:25.236Z,41.20
2018-09-11T01:59:55.477Z,41.43
2018-09-11T02:02:26.786Z,40.95
2018-09-11T02:05:08.613Z,41.00
2018-09-11T02:07:50.361Z,41.78
2018-09-11T02:10:21.800Z,41.08
2018-09-11T02:13:03.957Z,41.57
2018-09-11T02:15:35.390Z,40.93
2018-09-11T02:18:06.904Z,41.73
2018-09-11T02:20:38.351Z,41.21
2018-09-11T02:23:09.869Z,41.54
2018-09-11T02:25:41.409Z,41.46
2018-09-11T02:28:12.969Z,40.85
2018-09-11T02:30:55.109Z,41.44
2018-09-11T02:33:26.549Z,41.34
2018-09-11T02:36:08.741Z,41.47
2018-09-11T02:38:45.283Z,41.50
2018-09-11T02:41:47.080Z,41.11
2018-09-11T02:44:19.565Z,41.43
2018-09-11T02:46:50.981Z,41.52
2018-09-11T02:49:22.527Z,41.15
2018-09-11T02:51:54.033Z,41.59
2018-09-11T02:54:25.525Z,41.66
2018-09-11T02:56:56.979Z,40.96
2018-09-11T02:59:28.389Z,41.00
2018-09-11T03:01:59.805Z,41.43
2018-09-11T03:04:31.209Z,41.20
2018-09-11T03:07:02.718Z,41.79
2018-09-11T03:09:34.187Z,41.72
2018-09-11T03:12:05.540Z,41.74
2018-09-11T03:14:36.965Z,41.22
2018-09-11T03:17:08.657Z,41.77
2018-09-11T03:19:40.064Z,41.57
2018-09-11T03:22:12.468Z,41.10
2018-09-11T03:24:43.957Z,41.09
2018-09-11T03:27:15.406Z,41.30
2018-09-11T03:29:47.973Z,41.84
2018-09-11T03:32:19.945Z,41.58
2018-09-11T03:34:51.761Z,41.53
2018-09-11T03:37:23.584Z,41.26
2018-09-11T03:39:55.034Z,41.31
2018-09-11T03:42:26.445Z,41.76
2018-09-11T03:44:57.930Z,41.13
2018-09-11T03:47:29.391Z,41.33
2018-09-11T03:50:00.798Z,41.22
2018-09-11T03:52:32.293Z,41.43
2018-09-11T03:55:03.720Z,41.10
2018-09-11T03:57:35.118Z,41.33
2018-09-11T04:00:07.047Z,41.21
2018-09-11T04:02:38.518Z,41.77
2018-09-11T04:05:09.990Z,41.71
2018-09-11T04:07:41.433Z,41.67
2018-09-11T04:10:12.861Z,41.71
2018-09-11T04:12:44.273Z,41.39
2018-09-11T04:15:15.706Z,41.85
2018-09-11T04:17:48.613Z,41.35
2018-09-11T04:20:20.113Z,41.89
2018-09-11T04:22:51.700Z,42.02
2018-09-11T04:25:23.217Z,41.49
2018-09-11T04:27:54.782Z,41.99
2018-09-11T04:30:26.228Z,41.44
2018-09-11T04:32:57.659Z,41.91
2018-09-11T04:35:29.201Z,42.09
2018-09-11T04:38:00.637Z,41.58
2018-09-11T04:40:32.059Z,41.69
2018-09-11T04:43:03.520Z,41.52
2018-09-11T04:45:34.936Z,41.55
2018-09-11T04:48:06.350Z,41.83
2018-09-11T04:50:37.816Z,41.29
2018-09-11T04:53:09.269Z,41.76
2018-09-11T04:55:40.670Z,41.30
2018-09-11T04:58:12.169Z,41.55
2018-09-11T05:00:43.598Z,41.21
2018-09-11T05:03:15.048Z,41.42
2018-09-11T05:05:46.453Z,41.12
2018-09-11T05:08:18.837Z,41.12
2018-09-11T05:10:50.655Z,41.48
2018-09-11T05:13:23.338Z,41.76
2018-09-11T05:15:54.753Z,41.64
2018-09-11T05:18:26.237Z,41.64
2018-09-11T05:20:57.690Z,41.39
2018-09-11T05:23:29.224Z,41.45
2018-09-11T05:26:00.693Z,41.71
2018-09-11T05:28:32.106Z,41.79
2018-09-11T05:31:03.549Z,41.49
2018-09-11T05:33:34.938Z,41.16
2018-09-11T05:36:06.356Z,41.45
2018-09-11T05:38:37.848Z,41.33
2018-09-11T05:41:09.271Z,41.42
2018-09-11T05:43:40.705Z,41.19
2018-09-11T05:46:12.205Z,41.99
2018-09-11T05:48:43.633Z,41.45
2018-09-11T05:51:15.181Z,42.08
2018-09-11T05:53:46.717Z,41.80
2018-09-11T05:56:18.217Z,42.23
2018-09-11T05:58:50.493Z,41.63
2018-09-11T06:01:22.038Z,42.07
2018-09-11T06:03:53.480Z,41.96
2018-09-11T06:06:24.917Z,42.47
2018-09-11T06:08:56.341Z,42.07
2018-09-11T06:11:27.822Z,42.20
2018-09-11T06:14:05.735Z,42.13
2018-09-11T06:16:38.650Z,41.87
2018-09-11T06:19:10.697Z,42.45
2018-09-11T06:21:42.229Z,42.12
2018-09-11T06:24:13.616Z,42.04
2018-09-11T06:26:45.065Z,42.64
2018-09-11T06:29:16.553Z,42.71
2018-09-11T06:31:48.085Z,42.39
2018-09-11T06:34:19.618Z,42.49
2018-09-11T06:36:51.648Z,41.99
2018-09-11T06:39:23.101Z,42.63
2018-09-11T06:41:54.566Z,42.84
2018-09-11T06:44:25.986Z,42.69
2018-09-11T06:46:57.510Z,42.35
2018-09-11T06:49:28.886Z,41.99
2018-09-11T06:52:00.298Z,42.69
2018-09-11T06:54:31.729Z,42.68
2018-09-11T06:57:03.806Z,42.30
2018-09-11T06:59:35.434Z,42.79
2018-09-11T07:02:06.928Z,42.70
2018-09-11T07:04:38.430Z,42.80
2018-09-11T07:07:09.933Z,42.09
2018-09-11T07:09:41.348Z,42.70
2018-09-11T07:12:12.785Z,42.31
2018-09-11T07:14:44.255Z,42.11
2018-09-11T07:17:17.194Z,42.80
2018-09-11T07:19:48.727Z,42.27
2018-09-11T07:22:20.165Z,42.59
2018-09-11T07:24:51.737Z,42.23
2018-09-11T07:27:23.193Z,42.58
2018-09-11T07:29:54.869Z,42.94
2018-09-11T07:32:26.407Z,42.38
2018-09-11T07:34:58.093Z,42.15
2018-09-11T07:37:29.701Z,42.35
2018-09-11T07:40:01.145Z,42.77
2018-09-11T07:42:32.705Z,42.37
2018-09-11T07:45:04.302Z,42.44
2018-09-11T07:47:49.129Z,42.58
2018-09-11T07:50:20.561Z,42.75
2018-09-11T07:52:52.076Z,43.16
2018-09-11T07:55:23.477Z,42.54
2018-09-11T07:57:54.928Z,42.77
2018-09-11T08:00:26.455Z,42.35
2018-09-11T08:02:57.926Z,43.13
2018-09-11T08:05:29.341Z,42.90
2018-09-11T08:08:00.872Z,42.83
2018-09-11T08:10:32.301Z,42.45
2018-09-11T08:13:03.822Z,42.50
2018-09-11T08:15:35.377Z,42.61
2018-09-11T08:18:07.262Z,43.07
2018-09-11T08:20:38.793Z,42.33
2018-09-11T08:23:10.366Z,42.84
2018-09-11T08:25:42.013Z,42.24
2018-09-11T08:28:13.469Z,42.10
2018-09-11T08:30:45.010Z,42.35
2018-09-11T08:33:16.613Z,42.71
2018-09-11T08:35:49.158Z,42.14
2018-09-11T08:38:20.749Z,42.66
2018-09-11T08:40:52.264Z,42.62
2018-09-11T08:43:23.729Z,41.96
2018-09-11T08:45:55.242Z,42.04
2018-09-11T08:48:26.781Z,42.44
2018-09-11T08:50:58.348Z,42.05
2018-09-11T08:53:29.806Z,41.92
2018-09-11T08:56:01.243Z,41.83
2018-09-11T08:58:33.202Z,41.55
2018-09-11T09:01:04.938Z,42.16
2018-09-11T09:03:37.023Z,41.83
2018-09-11T09:06:08.598Z,41.55
2018-09-11T09:11:23.333Z,40.77
2018-09-11T09:13:54.981Z,40.69
2018-09-11T09:16:39.063Z,41.12
2018-09-11T09:19:10.646Z,40.32
2018-09-11T09:21:42.526Z,39.78
2018-09-11T09:24:14.226Z,40.62
2018-09-11T09:26:45.842Z,40.51
2018-09-11T09:29:17.910Z,40.63
2018-09-11T09:31:49.665Z,40.64
2018-09-11T09:34:22.288Z,40.16
2018-09-11T09:38:44.533Z,40.15
2018-09-11T09:41:16.501Z,40.07
2018-09-11T09:43:48.827Z,40.35
2018-09-11T09:46:20.505Z,40.14
2018-09-11T09:48:53.457Z,40.19
2018-09-11T09:51:25.420Z,39.96
2018-09-11T09:53:56.962Z,39.51
2018-09-11T09:56:28.766Z,39.62
2018-09-11T09:59:00.201Z,39.65
2018-09-11T10:01:36.934Z,39.12
2018-09-11T10:04:13.672Z,39.19
2018-09-11T10:06:45.761Z,39.35
2018-09-11T10:09:17.699Z,39.60
2018-09-11T10:11:49.201Z,39.22
2018-09-11T10:14:20.661Z,38.71
2018-09-11T10:16:52.189Z,39.46
2018-09-11T10:19:23.705Z,39.71
2018-09-11T10:21:55.195Z,39.43
2018-09-11T10:24:26.645Z,39.09
2018-09-11T10:26:58.304Z,39.41
2018-09-11T10:29:29.890Z,39.47
2018-09-11T10:32:01.416Z,39.52
2018-09-11T10:34:32.973Z,39.09
2018-09-11T10:37:04.515Z,39.33
2018-09-11T10:39:36.082Z,39.16
2018-09-11T10:42:08.407Z,39.31
2018-09-11T10:44:39.887Z,38.76
2018-09-11T10:47:11.329Z,38.21
2018-09-11T10:49:42.865Z,38.22
2018-09-11T10:52:15.117Z,38.96
2018-09-11T10:54:46.533Z,38.13
2018-09-11T10:57:18.153Z,38.58
2018-09-11T11:02:17.179Z,38.90
2018-09-11T11:04:48.678Z,38.20
2018-09-11T11:07:20.214Z,38.33
2018-09-11T11:09:51.909Z,38.89
2018-09-11T11:12:23.395Z,38.01
2018-09-11T11:14:54.825Z,38.58
2018-09-11T11:17:26.296Z,38.79
2018-09-11T11:19:57.817Z,39.04
2018-09-11T11:22:29.298Z,38.58
2018-09-11T11:25:00.737Z,38.13
2018-09-11T11:27:32.277Z,37.99
2018-09-11T11:30:03.729Z,37.86
2018-09-11T11:32:35.213Z,38.03
2018-09-11T11:35:06.724Z,38.51
2018-09-11T11:37:38.169Z,38.82
2018-09-11T11:40:09.606Z,38.44
2018-09-11T11:43:03.966Z,38.22
2018-09-11T11:45:37.001Z,38.61
2018-09-11T11:48:20.481Z,38.03
2018-09-11T11:50:53.022Z,37.99
2018-09-11T11:53:36.482Z,38.09
2018-09-11T11:56:09.736Z,38.13
2018-09-11T11:58:53.109Z,37.94
2018-09-11T12:01:25.940Z,38.01
2018-09-11T12:04:09.287Z,38.37
2018-09-11T12:06:41.873Z,38.57
2018-09-11T12:09:25.240Z,38.52
2018-09-11T12:11:57.845Z,38.29
2018-09-11T12:14:41.209Z,38.70
2018-09-11T12:17:13.853Z,38.53
2018-09-11T12:19:58.033Z,38.65
2018-09-11T12:22:30.869Z,38.48
2018-09-11T12:25:14.873Z,38.34
2018-09-11T12:27:47.472Z,38.39
2018-09-11T12:30:30.857Z,38.61
2018-09-11T12:33:03.473Z,39.10
2018-09-11T12:35:46.910Z,38.40
2018-09-11T12:38:19.606Z,39.14
2018-09-11T12:41:03.089Z,38.61
2018-09-11T12:43:35.689Z,38.65
2018-09-11T12:46:19.478Z,38.80
2018-09-11T12:48:52.084Z,39.10
2018-09-11T12:51:35.373Z,38.44
2018-09-11T12:54:08.015Z,38.44
2018-09-11T12:56:51.367Z,38.75
2018-09-11T12:59:24.053Z,38.12
2018-09-11T13:03:40.274Z,38.12
2018-09-11T13:06:11.801Z,37.89
2018-09-11T13:08:43.228Z,38.37
2018-09-11T13:11:14.709Z,37.99
2018-09-11T13:13:46.156Z,37.83
2018-09-11T13:16:17.657Z,37.95
2018-09-11T13:18:49.217Z,38.17
2018-09-11T13:21:20.713Z,38.22
2018-09-11T13:23:52.174Z,38.22
2018-09-11T13:26:24.625Z,37.51
2018-09-11T13:28:56.321Z,37.91
2018-09-11T13:31:28.533Z,37.02
2018-09-11T13:33:59.962Z,38.00
2018-09-11T13:36:31.403Z,37.81
2018-09-11T13:39:05.378Z,37.00
2018-09-11T13:41:36.845Z,37.51
2018-09-11T13:44:08.389Z,36.89
2018-09-11T13:46:39.834Z,37.56
2018-09-11T13:49:11.453Z,37.51
2018-09-11T13:51:43.012Z,37.35
2018-09-11T13:54:14.438Z,37.25
2018-09-11T13:56:45.848Z,36.84
2018-09-11T13:59:17.266Z,36.76
2018-09-11T14:01:48.684Z,36.74
2018-09-11T14:04:20.121Z,36.43
2018-09-11T14:06:51.597Z,36.64
2018-09-11T14:09:23.006Z,37.41
2018-09-11T14:11:54.493Z,37.29
2018-09-11T14:14:26.082Z,36.62
2018-09-11T14:16:57.497Z,37.14
2018-09-11T14:19:28.925Z,36.71
2018-09-11T14:22:00.345Z,36.31
2018-09-11T14:24:31.773Z,35.96
2018-09-11T14:27:03.417Z,35.64
2018-09-11T14:29:34.842Z,36.12
2018-09-11T14:32:06.434Z,35.72
2018-09-11T14:34:38.013Z,35.66
2018-09-11T14:37:09.397Z,35.80
2018-09-11T14:39:40.929Z,35.97
2018-09-11T14:42:12.351Z,35.85
2018-09-11T14:44:43.927Z,35.81
2018-09-11T14:47:16.225Z,35.86
2018-09-11T14:49:47.638Z,35.96
2018-09-11T14:52:19.102Z,36.19
2018-09-11T14:54:50.601Z,35.27
2018-09-11T14:57:22.119Z,36.10
2018-09-11T14:59:53.513Z,35.66
2018-09-11T15:02:24.913Z,35.02
2018-09-11T15:04:56.787Z,35.47
2018-09-11T15:07:28.285Z,34.99
2018-09-11T15:09:59.779Z,34.80
2018-09-11T15:12:31.202Z,35.33
2018-09-11T15:15:02.626Z,35.37
2018-09-11T15:17:34.034Z,35.32
2018-09-11T15:20:05.575Z,34.71
2018-09-11T15:22:37.096Z,35.55
2018-09-11T15:25:08.529Z,35.65
2018-09-11T15:27:39.957Z,34.87
2018-09-11T15:30:11.385Z,34.89
2018-09-11T15:32:42.911Z,35.47
2018-09-11T15:35:14.351Z,35.41
2018-09-11T15:37:46.392Z,35.07
2018-09-11T15:40:17.833Z,35.07
2018-09-11T15:42:49.378Z,35.19
